Terminal Aerodrome Forecast
Issued by NWS

Home | Current Version | Previous Version | Text Only | Print | Product List | Glossary On
Versions: 1 2 3 4 5 6 7 8 9 10 11 12 13 14
000
FTUS45 KBOI 100050 AAA
TAFBKE
TAF AMD
KBKE 100050Z 1001/1024 VRB05KT 4SM -SN OVC015
      TEMPO 1001/1004 1SM -SN BKN010
     FM100600 13005KT 3SM -SHSN OVC020
     FM101000 15006KT 5SM BR VCSH BKN025 OVC050
     FM101900 30005KT P6SM BKN025 OVC050=

USA.gov is the U.S. government's official web portal to all federal, state and local government web resources and services.